Terminal Aerodrome Forecast
Issued by NWS Grand Forks, ND

Home | Current Version | Previous Version | Text Only | Print | Product List | Glossary Off
Versions: 1 2 3 4 5 6 7 8 9 10 11 12 13 14 15 16

000
FTUS43 KFGF 151600 AAA
TAFGFK
TAF AMD
KGFK 151654Z 1517/1612 35022G32KT P6SM OVC010
     FM151900 35023G32KT P6SM BKN015
     FM160100 34016KT P6SM BKN020=

USA.gov is the U.S. government's official web portal to all federal, state and local government web resources and services.